Floyd Bennett Memorial Airport Glens Falls US
ICAO: KGFL
IATA: GFL
Category: Medium
Scheduled Services: No

Elevation: 328 ft
TransAlt. 18000 ft.

Airport Communications:
ALBANY APP/DEP:125
ASOS:119.25
BURLINGTON RDO:122.2
CTAF/UNICOM:123

KGFL Zoom In..

If you have problems with the map follow the link
https://www.worldairports.se/pages/airport.php?
ICAO=KGFL

Runways:

(A) RW 01 length 5000 ft width 150 ft
ILS 110.70 / hdg 12

(B) RW 12 length 3999 ft width 100 ft
---- / hdg 124

(C) RW 19 length 5000 ft width 150 ft
---- / hdg 192

(D) RW 30 length 3999 ft width 100 ft
---- / hdg 304

Location; KGFL
Day. 14 / Time. 04.53 Zulu
* Altimeter: 30.03
* Temperature: 02° c. 35.6°f.
* Wind from: 350° Speed 06 kn.
Dewpoint: 01° c.
Visibility: 5 Statute Miles.
Clouds: Few 500 ft.
Clouds: Overcast 1200 ft.
Conditions: Light Rain.Conditions: Mist.

KGFL 140453Z AUTO 35006KT 5SM -RA BR FEW005 OVC012 02/01 A3003 RMK AO2 SLP177 P0002 T00170011 400171067


Wind From 350°
Speed 06 kn.

 
 
jpsmedia worldairports.se 2019   terms of use